This is the latest recevied weather packets stored in our database for station/object SP6PGH-13. If no packets are shown the sender has not sent any weather packets the latest 1 day(s).
| Time | Temp. | Humidity | Pressure | Rain* | Wind** | Luminosity | Snow |
|---|---|---|---|---|---|---|---|
| 1778082243 | 23.89° C | 39% | 990.9 hPa | - | - | 104 W/m² | - |
| 1778080441 | 25° C | 38% | 991.1 hPa | - | - | 324 W/m² | - |
| 1778076837 | 23.33° C | 43% | 991.6 hPa | - | - | 335 W/m² | - |
| 1778073233 | 23.33° C | 44% | 991.9 hPa | - | - | 547 W/m² | - |
| 1778072332 | 22.22° C | 47% | 991.9 hPa | - | - | 412 W/m² | - |
| 1778068728 | 21.67° C | 48% | 992 hPa | - | - | 325 W/m² | - |
| 1778066926 | 21.11° C | 52% | 992.1 hPa | - | - | 300 W/m² | - |
| 1778065124 | 21.67° C | 51% | 992.1 hPa | - | - | 224 W/m² | - |
| 1778064223 | 21.11° C | 52% | 992 hPa | - | - | 309 W/m² | - |
| 1778061520 | 20° C | 57% | 992 hPa | - | - | 807 W/m² | - |
| 1778060619 | 20.56° C | 54% | 992 hPa | - | - | 734 W/m² | - |
| 1778058816 | 18.89° C | 58% | 992 hPa | - | - | 129 W/m² | - |
| 1778057014 | 18.89° C | 59% | 991.8 hPa | - | - | 355 W/m² | - |
| 1778056113 | 18.33° C | 61% | 991.8 hPa | - | - | 237 W/m² | - |
| 1778055212 | 18.89° C | 61% | 991.9 hPa | - | - | 314 W/m² | - |
| 1778053410 | 18.89° C | 59% | 991.6 hPa | - | - | 593 W/m² | - |
| 1778052509 | 18.33° C | 62% | 991.6 hPa | - | - | 264 W/m² | - |
| 1778051608 | 17.78° C | 64% | 991.4 hPa | - | - | 419 W/m² | - |
| 1778050707 | 17.22° C | 65% | 991.6 hPa | - | - | 347 W/m² | - |
| 1778048905 | 15.56° C | 71% | 991.3 hPa | - | - | 144 W/m² | - |
| 1778045300 | 13.33° C | 78% | 991.1 hPa | - | - | 114 W/m² | - |
| 1778044399 | 12.78° C | 77% | 991.1 hPa | - | - | 113 W/m² | - |
| 1778043498 | 12.78° C | 80% | 990.9 hPa | - | - | 90 W/m² | - |
| 1778042597 | 12.22° C | 83% | 991 hPa | - | - | 66 W/m² | - |
| 1778041696 | 11.67° C | 84% | 990.8 hPa | - | - | 52 W/m² | - |
* Rain since midnight (hover to see other rain measurements)
** Current wind speed in m/s (hover to see current wind gust speed)